sensor_id;sensor_type;location;lat;lon;timestamp;P1;durP1;ratioP1;P2;durP2;ratioP2
13764;SDS011;6953;48.810;9.204;2023-05-17T00:00:02;0.90;;;0.90;;
13764;SDS011;6953;48.810;9.204;2023-05-17T00:02:30;1.02;;;1.02;;
13764;SDS011;6953;48.810;9.204;2023-05-17T00:04:56;1.10;;;1.10;;
13764;SDS011;6953;48.810;9.204;2023-05-17T00:07:21;1.00;;;1.00;;
13764;SDS011;6953;48.810;9.204;2023-05-17T00:09:46;0.90;;;0.90;;
13764;SDS011;6953;48.810;9.204;2023-05-17T00:12:12;0.50;;;0.50;;
13764;SDS011;6953;48.810;9.204;2023-05-17T00:14:37;0.60;;;0.60;;
13764;SDS011;6953;48.810;9.204;2023-05-17T00:17:02;0.70;;;0.70;;
13764;SDS011;6953;48.810;9.204;2023-05-17T00:19:28;0.60;;;0.60;;
13764;SDS011;6953;48.810;9.204;2023-05-17T00:21:53;0.50;;;0.50;;
13764;SDS011;6953;48.810;9.204;2023-05-17T00:24:18;0.52;;;0.52;;
13764;SDS011;6953;48.810;9.204;2023-05-17T00:26:44;0.60;;;0.60;;
13764;SDS011;6953;48.810;9.204;2023-05-17T00:29:09;0.55;;;0.55;;
13764;SDS011;6953;48.810;9.204;2023-05-17T00:31:34;0.63;;;0.63;;
13764;SDS011;6953;48.810;9.204;2023-05-17T00:34:00;0.60;;;0.60;;
13764;SDS011;6953;48.810;9.204;2023-05-17T00:36:25;0.47;;;0.47;;
13764;SDS011;6953;48.810;9.204;2023-05-17T00:38:50;0.53;;;0.53;;
13764;SDS011;6953;48.810;9.204;2023-05-17T00:41:16;0.60;;;0.60;;
13764;SDS011;6953;48.810;9.204;2023-05-17T00:43:42;0.60;;;0.60;;
13764;SDS011;6953;48.810;9.204;2023-05-17T00:46:07;0.60;;;0.60;;
13764;SDS011;6953;48.810;9.204;2023-05-17T00:48:32;0.50;;;0.50;;
13764;SDS011;6953;48.810;9.204;2023-05-17T00:50:58;0.60;;;0.60;;
13764;SDS011;6953;48.810;9.204;2023-05-17T00:53:24;0.60;;;0.60;;
13764;SDS011;6953;48.810;9.204;2023-05-17T00:55:50;0.60;;;0.60;;
13764;SDS011;6953;48.810;9.204;2023-05-17T00:58:17;0.50;;;0.50;;
13764;SDS011;6953;48.810;9.204;2023-05-17T01:00:42;0.40;;;0.40;;
13764;SDS011;6953;48.810;9.204;2023-05-17T01:03:08;0.50;;;0.50;;
13764;SDS011;6953;48.810;9.204;2023-05-17T01:05:34;0.40;;;0.40;;
13764;SDS011;6953;48.810;9.204;2023-05-17T01:07:59;0.47;;;0.47;;
13764;SDS011;6953;48.810;9.204;2023-05-17T01:10:40;0.43;;;0.43;;
13764;SDS011;6953;48.810;9.204;2023-05-17T01:13:16;0.40;;;0.40;;
13764;SDS011;6953;48.810;9.204;2023-05-17T01:15:52;0.40;;;0.40;;
13764;SDS011;6953;48.810;9.204;2023-05-17T01:18:29;0.60;;;0.60;;
13764;SDS011;6953;48.810;9.204;2023-05-17T01:21:05;0.60;;;0.60;;
13764;SDS011;6953;48.810;9.204;2023-05-17T01:29:06;0.60;;;0.60;;
13764;SDS011;6953;48.810;9.204;2023-05-17T01:31:34;0.50;;;0.50;;
13764;SDS011;6953;48.810;9.204;2023-05-17T01:34:00;0.50;;;0.50;;
13764;SDS011;6953;48.810;9.204;2023-05-17T01:36:26;0.55;;;0.55;;
13764;SDS011;6953;48.810;9.204;2023-05-17T01:38:51;0.40;;;0.40;;
13764;SDS011;6953;48.810;9.204;2023-05-17T01:41:22;0.40;;;0.40;;
13764;SDS011;6953;48.810;9.204;2023-05-17T01:44:01;0.50;;;0.50;;
13764;SDS011;6953;48.810;9.204;2023-05-17T01:46:40;0.60;;;0.60;;
13764;SDS011;6953;48.810;9.204;2023-05-17T01:54:45;0.53;;;0.53;;
13764;SDS011;6953;48.810;9.204;2023-05-17T01:57:14;0.60;;;0.60;;
13764;SDS011;6953;48.810;9.204;2023-05-17T01:59:44;0.50;;;0.50;;
13764;SDS011;6953;48.810;9.204;2023-05-17T02:02:11;0.60;;;0.60;;
13764;SDS011;6953;48.810;9.204;2023-05-17T02:04:37;0.50;;;0.50;;
13764;SDS011;6953;48.810;9.204;2023-05-17T02:07:03;0.50;;;0.50;;
13764;SDS011;6953;48.810;9.204;2023-05-17T02:09:28;0.60;;;0.60;;
13764;SDS011;6953;48.810;9.204;2023-05-17T02:11:54;0.60;;;0.60;;
13764;SDS011;6953;48.810;9.204;2023-05-17T02:14:20;0.50;;;0.50;;
13764;SDS011;6953;48.810;9.204;2023-05-17T02:16:45;0.60;;;0.60;;
13764;SDS011;6953;48.810;9.204;2023-05-17T02:19:11;0.57;;;0.57;;
13764;SDS011;6953;48.810;9.204;2023-05-17T02:21:37;0.50;;;0.50;;
13764;SDS011;6953;48.810;9.204;2023-05-17T02:24:03;0.70;;;0.70;;
13764;SDS011;6953;48.810;9.204;2023-05-17T02:26:28;0.57;;;0.57;;
13764;SDS011;6953;48.810;9.204;2023-05-17T02:28:55;0.50;;;0.50;;
13764;SDS011;6953;48.810;9.204;2023-05-17T02:31:21;0.60;;;0.60;;
13764;SDS011;6953;48.810;9.204;2023-05-17T02:33:46;0.60;;;0.60;;
13764;SDS011;6953;48.810;9.204;2023-05-17T02:36:11;0.40;;;0.40;;
13764;SDS011;6953;48.810;9.204;2023-05-17T02:38:37;0.57;;;0.57;;
13764;SDS011;6953;48.810;9.204;2023-05-17T02:41:03;0.40;;;0.40;;
13764;SDS011;6953;48.810;9.204;2023-05-17T02:43:28;0.60;;;0.60;;
13764;SDS011;6953;48.810;9.204;2023-05-17T02:45:54;0.50;;;0.50;;
13764;SDS011;6953;48.810;9.204;2023-05-17T02:48:19;0.50;;;0.50;;
13764;SDS011;6953;48.810;9.204;2023-05-17T02:50:44;0.60;;;0.60;;
13764;SDS011;6953;48.810;9.204;2023-05-17T02:53:10;0.50;;;0.50;;
13764;SDS011;6953;48.810;9.204;2023-05-17T02:55:35;0.50;;;0.50;;
13764;SDS011;6953;48.810;9.204;2023-05-17T02:58:00;0.60;;;0.60;;
13764;SDS011;6953;48.810;9.204;2023-05-17T03:00:26;0.60;;;0.60;;
13764;SDS011;6953;48.810;9.204;2023-05-17T03:02:51;0.60;;;0.60;;
13764;SDS011;6953;48.810;9.204;2023-05-17T03:05:16;0.70;;;0.70;;
13764;SDS011;6953;48.810;9.204;2023-05-17T03:07:42;0.60;;;0.60;;
13764;SDS011;6953;48.810;9.204;2023-05-17T03:10:07;0.50;;;0.50;;
13764;SDS011;6953;48.810;9.204;2023-05-17T03:12:33;0.60;;;0.60;;
13764;SDS011;6953;48.810;9.204;2023-05-17T03:14:58;0.53;;;0.53;;
13764;SDS011;6953;48.810;9.204;2023-05-17T03:17:23;0.60;;;0.60;;
13764;SDS011;6953;48.810;9.204;2023-05-17T03:19:49;0.50;;;0.50;;
13764;SDS011;6953;48.810;9.204;2023-05-17T03:22:14;0.50;;;0.50;;
13764;SDS011;6953;48.810;9.204;2023-05-17T03:24:39;0.60;;;0.60;;
13764;SDS011;6953;48.810;9.204;2023-05-17T03:27:05;0.60;;;0.60;;
13764;SDS011;6953;48.810;9.204;2023-05-17T03:29:30;0.60;;;0.60;;
13764;SDS011;6953;48.810;9.204;2023-05-17T03:31:55;0.70;;;0.70;;
13764;SDS011;6953;48.810;9.204;2023-05-17T03:34:21;0.60;;;0.60;;
13764;SDS011;6953;48.810;9.204;2023-05-17T03:36:46;0.60;;;0.60;;
13764;SDS011;6953;48.810;9.204;2023-05-17T03:39:11;0.70;;;0.70;;
13764;SDS011;6953;48.810;9.204;2023-05-17T03:41:37;0.50;;;0.50;;
13764;SDS011;6953;48.810;9.204;2023-05-17T03:44:02;0.60;;;0.60;;
13764;SDS011;6953;48.810;9.204;2023-05-17T03:46:28;0.50;;;0.50;;
13764;SDS011;6953;48.810;9.204;2023-05-17T03:48:53;0.53;;;0.53;;
13764;SDS011;6953;48.810;9.204;2023-05-17T03:51:19;0.60;;;0.60;;
13764;SDS011;6953;48.810;9.204;2023-05-17T03:53:44;0.60;;;0.60;;
13764;SDS011;6953;48.810;9.204;2023-05-17T03:56:09;0.60;;;0.60;;
13764;SDS011;6953;48.810;9.204;2023-05-17T03:58:35;0.50;;;0.50;;
13764;SDS011;6953;48.810;9.204;2023-05-17T04:01:00;0.60;;;0.60;;
13764;SDS011;6953;48.810;9.204;2023-05-17T04:03:26;0.50;;;0.50;;
13764;SDS011;6953;48.810;9.204;2023-05-17T04:05:51;0.63;;;0.63;;
13764;SDS011;6953;48.810;9.204;2023-05-17T04:08:17;0.50;;;0.50;;
13764;SDS011;6953;48.810;9.204;2023-05-17T04:10:42;0.60;;;0.60;;
13764;SDS011;6953;48.810;9.204;2023-05-17T04:13:08;0.60;;;0.60;;
13764;SDS011;6953;48.810;9.204;2023-05-17T04:15:34;0.70;;;0.70;;
13764;SDS011;6953;48.810;9.204;2023-05-17T04:18:00;0.50;;;0.50;;
13764;SDS011;6953;48.810;9.204;2023-05-17T04:20:25;0.50;;;0.50;;
13764;SDS011;6953;48.810;9.204;2023-05-17T04:23:02;0.43;;;0.43;;
13764;SDS011;6953;48.810;9.204;2023-05-17T04:25:28;0.50;;;0.50;;
13764;SDS011;6953;48.810;9.204;2023-05-17T04:27:53;0.50;;;0.50;;
13764;SDS011;6953;48.810;9.204;2023-05-17T04:30:18;0.40;;;0.40;;
13764;SDS011;6953;48.810;9.204;2023-05-17T04:32:45;0.40;;;0.40;;
13764;SDS011;6953;48.810;9.204;2023-05-17T04:35:11;0.50;;;0.50;;
13764;SDS011;6953;48.810;9.204;2023-05-17T04:37:36;0.70;;;0.70;;
13764;SDS011;6953;48.810;9.204;2023-05-17T04:40:05;0.60;;;0.60;;
13764;SDS011;6953;48.810;9.204;2023-05-17T04:42:31;0.50;;;0.50;;
13764;SDS011;6953;48.810;9.204;2023-05-17T04:44:57;0.60;;;0.60;;
13764;SDS011;6953;48.810;9.204;2023-05-17T04:47:22;0.50;;;0.50;;
13764;SDS011;6953;48.810;9.204;2023-05-17T04:49:47;0.50;;;0.50;;
13764;SDS011;6953;48.810;9.204;2023-05-17T04:52:15;0.50;;;0.50;;
13764;SDS011;6953;48.810;9.204;2023-05-17T04:54:40;0.60;;;0.60;;
13764;SDS011;6953;48.810;9.204;2023-05-17T04:57:06;0.50;;;0.50;;
13764;SDS011;6953;48.810;9.204;2023-05-17T04:59:31;0.50;;;0.50;;
13764;SDS011;6953;48.810;9.204;2023-05-17T05:01:56;0.43;;;0.43;;
13764;SDS011;6953;48.810;9.204;2023-05-17T05:04:22;0.50;;;0.50;;
13764;SDS011;6953;48.810;9.204;2023-05-17T05:06:48;0.60;;;0.60;;
13764;SDS011;6953;48.810;9.204;2023-05-17T05:09:14;0.68;;;0.68;;
13764;SDS011;6953;48.810;9.204;2023-05-17T05:11:39;0.50;;;0.50;;
13764;SDS011;6953;48.810;9.204;2023-05-17T05:14:04;0.50;;;0.50;;
13764;SDS011;6953;48.810;9.204;2023-05-17T05:16:30;0.50;;;0.50;;
13764;SDS011;6953;48.810;9.204;2023-05-17T05:18:55;0.60;;;0.60;;
13764;SDS011;6953;48.810;9.204;2023-05-17T05:21:20;0.50;;;0.50;;
13764;SDS011;6953;48.810;9.204;2023-05-17T05:23:45;0.50;;;0.50;;
13764;SDS011;6953;48.810;9.204;2023-05-17T05:26:11;0.50;;;0.50;;
13764;SDS011;6953;48.810;9.204;2023-05-17T05:28:36;0.57;;;0.57;;
13764;SDS011;6953;48.810;9.204;2023-05-17T05:31:01;0.50;;;0.50;;
13764;SDS011;6953;48.810;9.204;2023-05-17T05:33:27;0.50;;;0.50;;
13764;SDS011;6953;48.810;9.204;2023-05-17T05:35:52;0.40;;;0.40;;
13764;SDS011;6953;48.810;9.204;2023-05-17T05:38:17;0.45;;;0.45;;
13764;SDS011;6953;48.810;9.204;2023-05-17T05:40:45;0.50;;;0.50;;
13764;SDS011;6953;48.810;9.204;2023-05-17T05:43:12;0.43;;;0.43;;
13764;SDS011;6953;48.810;9.204;2023-05-17T05:45:37;0.40;;;0.40;;
13764;SDS011;6953;48.810;9.204;2023-05-17T05:48:05;0.40;;;0.40;;
13764;SDS011;6953;48.810;9.204;2023-05-17T05:50:33;0.40;;;0.40;;
13764;SDS011;6953;48.810;9.204;2023-05-17T05:52:58;0.40;;;0.40;;
13764;SDS011;6953;48.810;9.204;2023-05-17T05:55:25;0.40;;;0.40;;
13764;SDS011;6953;48.810;9.204;2023-05-17T05:57:50;0.40;;;0.40;;
13764;SDS011;6953;48.810;9.204;2023-05-17T06:00:16;0.40;;;0.40;;
13764;SDS011;6953;48.810;9.204;2023-05-17T06:02:42;0.30;;;0.30;;
13764;SDS011;6953;48.810;9.204;2023-05-17T06:05:07;0.40;;;0.40;;
13764;SDS011;6953;48.810;9.204;2023-05-17T06:07:33;0.32;;;0.32;;
13764;SDS011;6953;48.810;9.204;2023-05-17T06:09:58;0.30;;;0.30;;
13764;SDS011;6953;48.810;9.204;2023-05-17T06:12:24;0.40;;;0.40;;
13764;SDS011;6953;48.810;9.204;2023-05-17T06:14:49;0.30;;;0.30;;
13764;SDS011;6953;48.810;9.204;2023-05-17T06:17:15;0.28;;;0.28;;
13764;SDS011;6953;48.810;9.204;2023-05-17T06:19:40;0.30;;;0.30;;
13764;SDS011;6953;48.810;9.204;2023-05-17T06:22:05;0.20;;;0.20;;
13764;SDS011;6953;48.810;9.204;2023-05-17T06:24:31;0.30;;;0.30;;
13764;SDS011;6953;48.810;9.204;2023-05-17T06:26:56;0.30;;;0.30;;
13764;SDS011;6953;48.810;9.204;2023-05-17T06:29:21;0.17;;;0.17;;
13764;SDS011;6953;48.810;9.204;2023-05-17T06:31:48;0.30;;;0.30;;
13764;SDS011;6953;48.810;9.204;2023-05-17T06:34:13;0.20;;;0.20;;
13764;SDS011;6953;48.810;9.204;2023-05-17T06:36:38;0.20;;;0.20;;
13764;SDS011;6953;48.810;9.204;2023-05-17T06:39:04;0.20;;;0.20;;
13764;SDS011;6953;48.810;9.204;2023-05-17T06:41:29;0.20;;;0.20;;
13764;SDS011;6953;48.810;9.204;2023-05-17T06:43:54;0.20;;;0.20;;
13764;SDS011;6953;48.810;9.204;2023-05-17T06:46:20;0.17;;;0.17;;
13764;SDS011;6953;48.810;9.204;2023-05-17T06:48:45;0.17;;;0.17;;
13764;SDS011;6953;48.810;9.204;2023-05-17T06:51:10;0.10;;;0.10;;
13764;SDS011;6953;48.810;9.204;2023-05-17T06:53:35;0.20;;;0.20;;
13764;SDS011;6953;48.810;9.204;2023-05-17T06:56:01;0.10;;;0.10;;
13764;SDS011;6953;48.810;9.204;2023-05-17T06:58:26;0.10;;;0.10;;
13764;SDS011;6953;48.810;9.204;2023-05-17T07:00:51;0.10;;;0.10;;
13764;SDS011;6953;48.810;9.204;2023-05-17T07:03:17;0.20;;;0.20;;
13764;SDS011;6953;48.810;9.204;2023-05-17T07:05:42;0.20;;;0.20;;
13764;SDS011;6953;48.810;9.204;2023-05-17T07:08:08;0.20;;;0.20;;
13764;SDS011;6953;48.810;9.204;2023-05-17T07:10:33;0.20;;;0.20;;
13764;SDS011;6953;48.810;9.204;2023-05-17T07:12:58;0.20;;;0.20;;
13764;SDS011;6953;48.810;9.204;2023-05-17T07:15:24;0.20;;;0.20;;
13764;SDS011;6953;48.810;9.204;2023-05-17T07:17:49;0.20;;;0.20;;
13764;SDS011;6953;48.810;9.204;2023-05-17T07:20:15;0.20;;;0.20;;
13764;SDS011;6953;48.810;9.204;2023-05-17T07:22:40;0.20;;;0.20;;
13764;SDS011;6953;48.810;9.204;2023-05-17T07:25:06;0.20;;;0.20;;
13764;SDS011;6953;48.810;9.204;2023-05-17T07:27:32;0.20;;;0.20;;
13764;SDS011;6953;48.810;9.204;2023-05-17T07:29:57;0.10;;;0.10;;
13764;SDS011;6953;48.810;9.204;2023-05-17T07:32:23;0.10;;;0.10;;
13764;SDS011;6953;48.810;9.204;2023-05-17T07:34:48;0.10;;;0.10;;
13764;SDS011;6953;48.810;9.204;2023-05-17T07:37:13;0.10;;;0.10;;
13764;SDS011;6953;48.810;9.204;2023-05-17T07:39:38;0.10;;;0.10;;
13764;SDS011;6953;48.810;9.204;2023-05-17T07:42:04;0.10;;;0.10;;
13764;SDS011;6953;48.810;9.204;2023-05-17T07:44:30;0.10;;;0.10;;
13764;SDS011;6953;48.810;9.204;2023-05-17T07:46:55;0.10;;;0.10;;
13764;SDS011;6953;48.810;9.204;2023-05-17T07:49:22;0.10;;;0.10;;
13764;SDS011;6953;48.810;9.204;2023-05-17T07:51:48;0.10;;;0.10;;
13764;SDS011;6953;48.810;9.204;2023-05-17T07:54:22;0.10;;;0.10;;
13764;SDS011;6953;48.810;9.204;2023-05-17T07:56:49;0.15;;;0.15;;
13764;SDS011;6953;48.810;9.204;2023-05-17T07:59:14;0.10;;;0.10;;
13764;SDS011;6953;48.810;9.204;2023-05-17T08:01:39;0.10;;;0.10;;
13764;SDS011;6953;48.810;9.204;2023-05-17T08:04:05;0.20;;;0.20;;
13764;SDS011;6953;48.810;9.204;2023-05-17T08:06:30;0.10;;;0.10;;
13764;SDS011;6953;48.810;9.204;2023-05-17T08:08:55;0.10;;;0.10;;
13764;SDS011;6953;48.810;9.204;2023-05-17T08:11:21;0.10;;;0.10;;
13764;SDS011;6953;48.810;9.204;2023-05-17T08:13:46;0.10;;;0.10;;
13764;SDS011;6953;48.810;9.204;2023-05-17T08:16:11;0.10;;;0.10;;
13764;SDS011;6953;48.810;9.204;2023-05-17T08:18:37;0.10;;;0.10;;
13764;SDS011;6953;48.810;9.204;2023-05-17T08:21:02;0.10;;;0.10;;
13764;SDS011;6953;48.810;9.204;2023-05-17T08:23:28;0.10;;;0.10;;
13764;SDS011;6953;48.810;9.204;2023-05-17T08:25:54;0.10;;;0.10;;
13764;SDS011;6953;48.810;9.204;2023-05-17T08:28:19;0.10;;;0.10;;
13764;SDS011;6953;48.810;9.204;2023-05-17T08:30:44;0.10;;;0.10;;
13764;SDS011;6953;48.810;9.204;2023-05-17T08:33:10;0.10;;;0.10;;
13764;SDS011;6953;48.810;9.204;2023-05-17T08:35:36;0.10;;;0.10;;
13764;SDS011;6953;48.810;9.204;2023-05-17T08:38:01;0.10;;;0.10;;
13764;SDS011;6953;48.810;9.204;2023-05-17T08:40:27;0.10;;;0.10;;
13764;SDS011;6953;48.810;9.204;2023-05-17T08:42:52;0.10;;;0.10;;
13764;SDS011;6953;48.810;9.204;2023-05-17T08:45:18;0.10;;;0.10;;
13764;SDS011;6953;48.810;9.204;2023-05-17T08:47:44;0.10;;;0.10;;
13764;SDS011;6953;48.810;9.204;2023-05-17T08:50:10;0.10;;;0.10;;
13764;SDS011;6953;48.810;9.204;2023-05-17T08:52:37;0.10;;;0.10;;
13764;SDS011;6953;48.810;9.204;2023-05-17T08:55:04;0.10;;;0.10;;
13764;SDS011;6953;48.810;9.204;2023-05-17T08:57:32;0.10;;;0.10;;
13764;SDS011;6953;48.810;9.204;2023-05-17T09:00:00;0.10;;;0.10;;
13764;SDS011;6953;48.810;9.204;2023-05-17T09:02:36;0.10;;;0.10;;
13764;SDS011;6953;48.810;9.204;2023-05-17T09:05:02;0.10;;;0.10;;
13764;SDS011;6953;48.810;9.204;2023-05-17T09:07:29;0.08;;;0.08;;
13764;SDS011;6953;48.810;9.204;2023-05-17T09:09:54;0.10;;;0.10;;
13764;SDS011;6953;48.810;9.204;2023-05-17T09:12:20;0.10;;;0.10;;
13764;SDS011;6953;48.810;9.204;2023-05-17T09:14:46;0.10;;;0.10;;
13764;SDS011;6953;48.810;9.204;2023-05-17T09:17:16;0.20;;;0.20;;
13764;SDS011;6953;48.810;9.204;2023-05-17T09:19:43;0.10;;;0.10;;
13764;SDS011;6953;48.810;9.204;2023-05-17T09:22:13;0.10;;;0.10;;
13764;SDS011;6953;48.810;9.204;2023-05-17T09:24:42;0.10;;;0.10;;
13764;SDS011;6953;48.810;9.204;2023-05-17T09:27:07;0.10;;;0.10;;
13764;SDS011;6953;48.810;9.204;2023-05-17T09:29:33;0.10;;;0.10;;
13764;SDS011;6953;48.810;9.204;2023-05-17T09:34:41;0.10;;;0.10;;
13764;SDS011;6953;48.810;9.204;2023-05-17T09:37:16;0.10;;;0.10;;
13764;SDS011;6953;48.810;9.204;2023-05-17T09:39:43;0.00;;;0.00;;
13764;SDS011;6953;48.810;9.204;2023-05-17T09:42:10;0.10;;;0.10;;
13764;SDS011;6953;48.810;9.204;2023-05-17T09:44:50;0.10;;;0.10;;
13764;SDS011;6953;48.810;9.204;2023-05-17T09:47:30;0.10;;;0.10;;
13764;SDS011;6953;48.810;9.204;2023-05-17T09:49:58;0.10;;;0.10;;
13764;SDS011;6953;48.810;9.204;2023-05-17T09:52:27;0.10;;;0.10;;
13764;SDS011;6953;48.810;9.204;2023-05-17T09:54:59;0.10;;;0.10;;
13764;SDS011;6953;48.810;9.204;2023-05-17T09:57:26;0.10;;;0.10;;
13764;SDS011;6953;48.810;9.204;2023-05-17T09:59:55;0.00;;;0.00;;
13764;SDS011;6953;48.810;9.204;2023-05-17T10:02:26;0.10;;;0.10;;
13764;SDS011;6953;48.810;9.204;2023-05-17T10:04:54;0.10;;;0.10;;
13764;SDS011;6953;48.810;9.204;2023-05-17T10:07:21;0.10;;;0.10;;
13764;SDS011;6953;48.810;9.204;2023-05-17T10:09:50;0.10;;;0.10;;
13764;SDS011;6953;48.810;9.204;2023-05-17T10:12:16;0.10;;;0.10;;
13764;SDS011;6953;48.810;9.204;2023-05-17T10:14:43;0.10;;;0.10;;
13764;SDS011;6953;48.810;9.204;2023-05-17T10:17:09;0.10;;;0.10;;
13764;SDS011;6953;48.810;9.204;2023-05-17T10:19:36;0.10;;;0.10;;
13764;SDS011;6953;48.810;9.204;2023-05-17T10:22:02;0.10;;;0.10;;
13764;SDS011;6953;48.810;9.204;2023-05-17T10:24:27;0.10;;;0.10;;
13764;SDS011;6953;48.810;9.204;2023-05-17T10:26:55;0.10;;;0.10;;
13764;SDS011;6953;48.810;9.204;2023-05-17T10:29:21;0.20;;;0.20;;
13764;SDS011;6953;48.810;9.204;2023-05-17T10:31:48;0.10;;;0.10;;
13764;SDS011;6953;48.810;9.204;2023-05-17T10:34:15;0.20;;;0.20;;
13764;SDS011;6953;48.810;9.204;2023-05-17T10:36:45;0.10;;;0.10;;
13764;SDS011;6953;48.810;9.204;2023-05-17T10:39:11;0.10;;;0.10;;
13764;SDS011;6953;48.810;9.204;2023-05-17T10:41:38;0.10;;;0.10;;
13764;SDS011;6953;48.810;9.204;2023-05-17T10:44:06;0.10;;;0.10;;
13764;SDS011;6953;48.810;9.204;2023-05-17T10:46:34;0.10;;;0.10;;
13764;SDS011;6953;48.810;9.204;2023-05-17T10:49:01;0.10;;;0.10;;
13764;SDS011;6953;48.810;9.204;2023-05-17T10:51:31;0.20;;;0.20;;
13764;SDS011;6953;48.810;9.204;2023-05-17T10:54:10;0.17;;;0.17;;
13764;SDS011;6953;48.810;9.204;2023-05-17T10:56:49;0.20;;;0.20;;
13764;SDS011;6953;48.810;9.204;2023-05-17T10:59:34;0.20;;;0.20;;
13764;SDS011;6953;48.810;9.204;2023-05-17T11:02:04;0.20;;;0.20;;
13764;SDS011;6953;48.810;9.204;2023-05-17T11:04:39;0.10;;;0.10;;
13764;SDS011;6953;48.810;9.204;2023-05-17T11:09:49;0.20;;;0.20;;
13764;SDS011;6953;48.810;9.204;2023-05-17T11:12:27;0.20;;;0.20;;
13764;SDS011;6953;48.810;9.204;2023-05-17T11:14:55;0.20;;;0.20;;
13764;SDS011;6953;48.810;9.204;2023-05-17T11:17:23;0.20;;;0.20;;
13764;SDS011;6953;48.810;9.204;2023-05-17T11:19:54;0.20;;;0.20;;
13764;SDS011;6953;48.810;9.204;2023-05-17T11:22:23;0.20;;;0.20;;
13764;SDS011;6953;48.810;9.204;2023-05-17T11:24:50;0.20;;;0.20;;
13764;SDS011;6953;48.810;9.204;2023-05-17T11:27:17;0.20;;;0.20;;
13764;SDS011;6953;48.810;9.204;2023-05-17T11:29:47;0.20;;;0.20;;
13764;SDS011;6953;48.810;9.204;2023-05-17T11:32:14;0.20;;;0.20;;
13764;SDS011;6953;48.810;9.204;2023-05-17T11:34:39;0.10;;;0.10;;
13764;SDS011;6953;48.810;9.204;2023-05-17T11:37:09;0.20;;;0.20;;
13764;SDS011;6953;48.810;9.204;2023-05-17T11:39:36;0.30;;;0.30;;
13764;SDS011;6953;48.810;9.204;2023-05-17T11:42:01;0.20;;;0.20;;
13764;SDS011;6953;48.810;9.204;2023-05-17T11:44:30;0.20;;;0.20;;
13764;SDS011;6953;48.810;9.204;2023-05-17T11:47:06;0.30;;;0.30;;
13764;SDS011;6953;48.810;9.204;2023-05-17T11:49:35;0.20;;;0.20;;
13764;SDS011;6953;48.810;9.204;2023-05-17T11:52:05;0.30;;;0.30;;
13764;SDS011;6953;48.810;9.204;2023-05-17T11:54:31;0.20;;;0.20;;
13764;SDS011;6953;48.810;9.204;2023-05-17T11:56:58;0.20;;;0.20;;
13764;SDS011;6953;48.810;9.204;2023-05-17T11:59:26;0.20;;;0.20;;
13764;SDS011;6953;48.810;9.204;2023-05-17T12:01:51;0.20;;;0.20;;
13764;SDS011;6953;48.810;9.204;2023-05-17T12:04:23;0.20;;;0.20;;
13764;SDS011;6953;48.810;9.204;2023-05-17T12:06:50;0.25;;;0.25;;
13764;SDS011;6953;48.810;9.204;2023-05-17T12:09:17;0.30;;;0.30;;
13764;SDS011;6953;48.810;9.204;2023-05-17T12:11:42;0.20;;;0.20;;
13764;SDS011;6953;48.810;9.204;2023-05-17T12:14:08;0.20;;;0.20;;
13764;SDS011;6953;48.810;9.204;2023-05-17T12:16:34;0.20;;;0.20;;
13764;SDS011;6953;48.810;9.204;2023-05-17T12:19:00;0.20;;;0.20;;
13764;SDS011;6953;48.810;9.204;2023-05-17T12:21:26;0.20;;;0.20;;
13764;SDS011;6953;48.810;9.204;2023-05-17T12:23:52;0.20;;;0.20;;
13764;SDS011;6953;48.810;9.204;2023-05-17T12:26:18;0.20;;;0.20;;
13764;SDS011;6953;48.810;9.204;2023-05-17T12:28:55;0.20;;;0.20;;
13764;SDS011;6953;48.810;9.204;2023-05-17T12:31:32;0.20;;;0.20;;
13764;SDS011;6953;48.810;9.204;2023-05-17T12:34:00;0.20;;;0.20;;
13764;SDS011;6953;48.810;9.204;2023-05-17T12:36:27;0.20;;;0.20;;
13764;SDS011;6953;48.810;9.204;2023-05-17T12:38:53;0.10;;;0.10;;
13764;SDS011;6953;48.810;9.204;2023-05-17T12:41:20;0.20;;;0.20;;
13764;SDS011;6953;48.810;9.204;2023-05-17T12:43:46;0.10;;;0.10;;
13764;SDS011;6953;48.810;9.204;2023-05-17T12:46:14;0.10;;;0.10;;
13764;SDS011;6953;48.810;9.204;2023-05-17T12:48:45;0.20;;;0.20;;
13764;SDS011;6953;48.810;9.204;2023-05-17T12:53:38;0.10;;;0.10;;
13764;SDS011;6953;48.810;9.204;2023-05-17T12:56:08;0.10;;;0.10;;
13764;SDS011;6953;48.810;9.204;2023-05-17T12:58:39;0.20;;;0.20;;
13764;SDS011;6953;48.810;9.204;2023-05-17T13:01:04;0.20;;;0.20;;
13764;SDS011;6953;48.810;9.204;2023-05-17T13:03:38;0.17;;;0.17;;
13764;SDS011;6953;48.810;9.204;2023-05-17T13:06:04;0.20;;;0.20;;
13764;SDS011;6953;48.810;9.204;2023-05-17T13:08:33;0.20;;;0.20;;
13764;SDS011;6953;48.810;9.204;2023-05-17T13:11:05;0.20;;;0.20;;
13764;SDS011;6953;48.810;9.204;2023-05-17T13:13:37;0.20;;;0.20;;
13764;SDS011;6953;48.810;9.204;2023-05-17T13:16:03;0.10;;;0.10;;
13764;SDS011;6953;48.810;9.204;2023-05-17T13:18:29;0.20;;;0.20;;
13764;SDS011;6953;48.810;9.204;2023-05-17T13:20:59;0.15;;;0.15;;
13764;SDS011;6953;48.810;9.204;2023-05-17T13:23:24;0.20;;;0.20;;
13764;SDS011;6953;48.810;9.204;2023-05-17T13:25:50;0.20;;;0.20;;
13764;SDS011;6953;48.810;9.204;2023-05-17T13:28:15;0.20;;;0.20;;
13764;SDS011;6953;48.810;9.204;2023-05-17T13:30:41;0.20;;;0.20;;
13764;SDS011;6953;48.810;9.204;2023-05-17T13:33:12;0.10;;;0.10;;
13764;SDS011;6953;48.810;9.204;2023-05-17T13:35:37;0.20;;;0.20;;
13764;SDS011;6953;48.810;9.204;2023-05-17T13:38:05;0.20;;;0.20;;
13764;SDS011;6953;48.810;9.204;2023-05-17T13:40:30;0.20;;;0.20;;
13764;SDS011;6953;48.810;9.204;2023-05-17T13:42:55;0.20;;;0.20;;
13764;SDS011;6953;48.810;9.204;2023-05-17T13:45:21;0.17;;;0.17;;
13764;SDS011;6953;48.810;9.204;2023-05-17T13:47:46;0.10;;;0.10;;
13764;SDS011;6953;48.810;9.204;2023-05-17T13:50:11;0.20;;;0.20;;
13764;SDS011;6953;48.810;9.204;2023-05-17T13:52:39;0.13;;;0.13;;
13764;SDS011;6953;48.810;9.204;2023-05-17T13:55:05;0.10;;;0.10;;
13764;SDS011;6953;48.810;9.204;2023-05-17T13:57:31;0.20;;;0.20;;
13764;SDS011;6953;48.810;9.204;2023-05-17T13:59:56;0.20;;;0.20;;
13764;SDS011;6953;48.810;9.204;2023-05-17T14:02:21;0.20;;;0.20;;
13764;SDS011;6953;48.810;9.204;2023-05-17T14:04:47;0.20;;;0.20;;
13764;SDS011;6953;48.810;9.204;2023-05-17T14:07:12;0.20;;;0.20;;
13764;SDS011;6953;48.810;9.204;2023-05-17T14:09:38;0.10;;;0.10;;
13764;SDS011;6953;48.810;9.204;2023-05-17T14:12:03;0.15;;;0.15;;
13764;SDS011;6953;48.810;9.204;2023-05-17T14:14:29;0.20;;;0.20;;
13764;SDS011;6953;48.810;9.204;2023-05-17T14:16:55;0.17;;;0.17;;
13764;SDS011;6953;48.810;9.204;2023-05-17T14:19:20;0.10;;;0.10;;
13764;SDS011;6953;48.810;9.204;2023-05-17T14:21:46;0.20;;;0.20;;
13764;SDS011;6953;48.810;9.204;2023-05-17T14:24:11;0.10;;;0.10;;
13764;SDS011;6953;48.810;9.204;2023-05-17T14:26:37;0.13;;;0.13;;
13764;SDS011;6953;48.810;9.204;2023-05-17T14:29:02;0.20;;;0.20;;
13764;SDS011;6953;48.810;9.204;2023-05-17T14:31:29;0.15;;;0.15;;
13764;SDS011;6953;48.810;9.204;2023-05-17T14:33:56;0.20;;;0.20;;
13764;SDS011;6953;48.810;9.204;2023-05-17T14:36:21;0.20;;;0.20;;
13764;SDS011;6953;48.810;9.204;2023-05-17T14:38:47;0.20;;;0.20;;
13764;SDS011;6953;48.810;9.204;2023-05-17T14:41:12;0.20;;;0.20;;
13764;SDS011;6953;48.810;9.204;2023-05-17T14:43:37;0.20;;;0.20;;
13764;SDS011;6953;48.810;9.204;2023-05-17T14:46:03;0.20;;;0.20;;
13764;SDS011;6953;48.810;9.204;2023-05-17T14:48:28;0.20;;;0.20;;
13764;SDS011;6953;48.810;9.204;2023-05-17T14:50:54;0.17;;;0.17;;
13764;SDS011;6953;48.810;9.204;2023-05-17T14:53:20;0.30;;;0.30;;
13764;SDS011;6953;48.810;9.204;2023-05-17T14:55:47;0.20;;;0.20;;
13764;SDS011;6953;48.810;9.204;2023-05-17T14:58:13;0.20;;;0.20;;
13764;SDS011;6953;48.810;9.204;2023-05-17T15:00:38;0.20;;;0.20;;
13764;SDS011;6953;48.810;9.204;2023-05-17T15:03:05;0.20;;;0.20;;
13764;SDS011;6953;48.810;9.204;2023-05-17T15:05:30;0.20;;;0.20;;
13764;SDS011;6953;48.810;9.204;2023-05-17T15:07:56;0.20;;;0.20;;
13764;SDS011;6953;48.810;9.204;2023-05-17T15:10:22;0.30;;;0.30;;
13764;SDS011;6953;48.810;9.204;2023-05-17T15:12:47;0.30;;;0.30;;
13764;SDS011;6953;48.810;9.204;2023-05-17T15:15:13;0.30;;;0.30;;